METAR Data
IDs: Format: Raw Decoded Include TAF

Data at: 0138 UTC 01 Mar 2021

LRTC 010130Z AUTO 34006KT 9999 FEW044/// SCT050/// OVC075/// 03/M00 Q1025